Time;durP1;ratioP1;P1;durP2;ratioP2;P2;SDS_P1;SDS_P2;PMS_P1;PMS_P2;Temp;Humidity;BMP_temperature;BMP_pressure;BME280_temperature;BME280_humidity;BME280_pressure;Samples;Min_cycle;Max_cycle;Signal;HPM_P1;HPM_P2
2021/10/27 00:01:43;;;;;;;27.70;13.27;;;;;;;9.90;60.43;101758.09;5010897;28;20033;-67
2021/10/27 00:04:09;;;;;;;29.05;13.70;;;;;;;9.82;60.58;101750.47;5012637;28;20033;-68
2021/10/27 00:06:35;;;;;;;32.67;12.73;;;;;;;10.74;58.04;101752.56;5030334;28;20034;-68
2021/10/27 00:09:01;;;;;;;32.28;15.68;;;;;;;10.17;60.07;101754.00;5021760;28;20033;-67
2021/10/27 00:11:27;;;;;;;25.80;13.25;;;;;;;10.97;56.95;101755.44;5013399;28;20033;-67
2021/10/27 00:13:53;;;;;;;30.05;14.50;;;;;;;11.15;56.59;101758.44;4998596;28;20104;-67
2021/10/27 00:16:18;;;;;;;31.88;14.55;;;;;;;11.20;56.50;101759.19;5011807;28;20339;-68
2021/10/27 00:18:44;;;;;;;23.98;13.50;;;;;;;11.03;56.94;101754.41;5013491;28;20046;-69
2021/10/27 00:21:10;;;;;;;27.02;12.82;;;;;;;10.78;57.87;101757.66;5020940;28;20025;-67
2021/10/27 00:23:35;;;;;;;27.88;13.35;;;;;;;10.68;57.80;101765.78;5002729;28;20434;-68
2021/10/27 00:26:01;;;;;;;27.25;14.05;;;;;;;11.07;56.93;101770.88;5013461;28;20080;-67
2021/10/27 00:28:26;;;;;;;22.85;13.25;;;;;;;11.29;56.58;101771.13;5013241;28;20129;-67
2021/10/27 00:30:52;;;;;;;19.85;12.85;;;;;;;10.46;58.60;101782.03;5031767;28;20038;-68
2021/10/27 00:33:17;;;;;;;28.52;14.68;;;;;;;10.31;59.21;101770.19;5020846;28;20072;-67
2021/10/27 00:35:43;;;;;;;25.73;13.70;;;;;;;10.80;58.03;101775.94;5025585;28;20068;-67
2021/10/27 00:38:08;;;;;;;30.13;14.38;;;;;;;10.73;58.09;101777.84;5000510;28;20128;-68
2021/10/27 00:40:34;;;;;;;28.48;14.10;;;;;;;11.20;56.81;101778.34;5029324;28;20026;-68
2021/10/27 00:42:59;;;;;;;26.50;13.88;;;;;;;10.86;58.01;101761.84;5030621;28;20046;-68
2021/10/27 00:45:25;;;;;;;28.73;14.57;;;;;;;10.86;57.67;101765.34;5002614;28;20478;-68
2021/10/27 00:47:50;;;;;;;30.02;15.35;;;;;;;9.84;60.97;101766.09;5001420;28;20053;-67
2021/10/27 00:50:17;;;;;;;27.98;13.82;;;;;;;10.66;58.72;101776.31;5024262;28;20087;-67
2021/10/27 00:52:43;;;;;;;32.97;16.58;;;;;;;10.87;58.44;101769.66;4997479;28;20049;-67
2021/10/27 00:55:09;;;;;;;30.42;15.13;;;;;;;11.12;57.18;101769.84;5028297;28;20034;-68
2021/10/27 00:57:37;;;;;;;28.90;14.70;;;;;;;10.41;59.21;101755.13;5016820;28;20037;-68
2021/10/27 01:00:06;;;;;;;34.20;14.70;;;;;;;11.18;57.08;101768.81;5017138;28;20036;-67
2021/10/27 01:02:31;;;;;;;36.38;15.18;;;;;;;11.29;56.83;101766.75;5007874;28;20048;-67
2021/10/27 01:04:57;;;;;;;25.70;15.15;;;;;;;10.68;58.80;101771.84;5013862;28;20573;-68
2021/10/27 01:07:23;;;;;;;27.48;13.80;;;;;;;10.39;59.30;101762.16;5022823;28;20042;-66
2021/10/27 01:09:49;;;;;;;25.33;14.85;;;;;;;11.09;57.68;101766.47;5016236;28;20054;-67
2021/10/27 01:12:14;;;;;;;30.55;15.45;;;;;;;10.60;59.40;101772.06;5014668;28;20038;-69
2021/10/27 01:14:41;;;;;;;28.77;14.38;;;;;;;11.39;56.40;101762.94;5001116;28;20053;-67
2021/10/27 01:17:08;;;;;;;31.08;15.20;;;;;;;10.79;58.70;101768.97;5013942;28;20041;-68
2021/10/27 01:19:52;;;;;;;29.23;15.07;;;;;;;11.00;58.02;101767.59;5017213;28;20025;-68
2021/10/27 01:22:30;;;;;;;30.33;15.80;;;;;;;10.92;58.23;101777.38;5011486;28;20550;-68
2021/10/27 01:24:57;;;;;;;26.60;15.18;;;;;;;11.05;57.87;101777.00;5018385;28;20026;-68
2021/10/27 01:27:23;;;;;;;33.28;15.95;;;;;;;11.36;57.37;101768.28;5020885;28;20117;-67
2021/10/27 01:29:49;;;;;;;31.05;14.27;;;;;;;11.23;57.51;101773.00;5006938;28;20033;-68
2021/10/27 01:32:26;;;;;;;30.27;15.30;;;;;;;10.86;58.61;101781.03;4990390;28;20090;-67
2021/10/27 01:34:52;;;;;;;33.45;17.27;;;;;;;11.75;55.81;101777.63;5024635;28;20038;-67
2021/10/27 01:37:19;;;;;;;28.52;15.52;;;;;;;11.48;56.84;101776.69;5015617;28;20046;-68
2021/10/27 01:39:45;;;;;;;32.45;16.52;;;;;;;10.45;59.93;101782.91;5003621;28;20246;-68
2021/10/27 01:42:12;;;;;;;31.77;15.35;;;;;;;10.55;59.90;101771.34;5015464;28;20038;-67
2021/10/27 01:44:37;;;;;;;34.47;16.67;;;;;;;11.30;57.74;101778.94;5019424;28;20755;-66
2021/10/27 01:47:03;;;;;;;33.25;15.80;;;;;;;10.58;59.85;101780.84;5012801;28;20045;-68
2021/10/27 01:49:29;;;;;;;27.85;15.70;;;;;;;11.39;57.17;101770.81;5016171;28;20036;-68
2021/10/27 01:51:55;;;;;;;30.48;16.65;;;;;;;11.02;58.72;101768.41;5002008;28;20046;-67
2021/10/27 01:54:21;;;;;;;24.58;14.57;;;;;;;10.72;59.58;101770.03;5029888;28;20694;-68
2021/10/27 01:56:47;;;;;;;36.10;15.65;;;;;;;11.30;57.90;101754.53;5028138;28;20623;-68
2021/10/27 01:59:12;;;;;;;39.15;16.58;;;;;;;11.36;57.38;101759.59;5013077;28;20036;-68
2021/10/27 02:01:37;;;;;;;31.88;15.68;;;;;;;10.82;58.96;101756.72;5012172;28;20083;-68
2021/10/27 02:04:03;;;;;;;27.75;14.07;;;;;;;10.75;59.58;101754.25;5002339;28;20076;-68
2021/10/27 02:06:28;;;;;;;34.90;15.13;;;;;;;11.07;58.68;101765.66;5015941;28;20495;-67
2021/10/27 02:08:54;;;;;;;36.58;16.33;;;;;;;10.74;59.89;101752.56;4999867;28;20069;-68
2021/10/27 02:11:20;;;;;;;34.47;15.90;;;;;;;10.62;59.72;101731.06;5015328;28;20060;-68
2021/10/27 02:13:46;;;;;;;33.95;16.98;;;;;;;11.14;58.30;101736.66;4986891;28;20037;-67
2021/10/27 02:16:12;;;;;;;33.30;15.30;;;;;;;10.86;58.90;101736.56;5012734;28;20115;-67
2021/10/27 02:18:37;;;;;;;30.15;13.70;;;;;;;11.33;57.76;101739.59;4988673;28;20046;-67
2021/10/27 02:21:03;;;;;;;40.00;16.65;;;;;;;10.58;59.89;101742.50;5020807;28;20057;-68
2021/10/27 02:23:30;;;;;;;32.53;15.18;;;;;;;11.16;58.27;101742.69;5006218;28;20486;-68
2021/10/27 02:25:57;;;;;;;28.75;14.63;;;;;;;11.01;58.92;101753.59;5002903;28;20168;-68
2021/10/27 02:28:23;;;;;;;36.30;16.00;;;;;;;10.80;59.63;101747.16;5016656;28;20570;-67
2021/10/27 02:30:49;;;;;;;29.95;13.98;;;;;;;10.75;59.79;101743.78;5018208;28;20038;-68
2021/10/27 02:33:15;;;;;;;32.05;15.75;;;;;;;11.27;57.59;101739.78;5012190;28;20061;-67
2021/10/27 02:35:40;;;;;;;26.85;15.57;;;;;;;11.27;58.23;101731.91;5023549;28;20078;-66
2021/10/27 02:38:06;;;;;;;31.73;14.93;;;;;;;11.19;57.63;101736.50;4995085;28;20102;-67
2021/10/27 02:40:32;;;;;;;31.70;14.65;;;;;;;11.46;57.16;101735.72;5023737;28;20594;-67
2021/10/27 02:42:58;;;;;;;34.17;14.57;;;;;;;11.48;57.54;101747.88;5012419;28;20124;-68
2021/10/27 02:45:23;;;;;;;24.85;13.73;;;;;;;11.04;58.75;101750.91;5013945;28;20069;-67
2021/10/27 02:47:49;;;;;;;26.70;13.85;;;;;;;10.79;59.39;101748.94;4989981;28;20678;-68
2021/10/27 02:50:15;;;;;;;26.52;14.20;;;;;;;11.44;57.53;101750.59;5013417;28;20037;-66
2021/10/27 02:52:47;;;;;;;27.55;13.30;;;;;;;11.39;57.40;101749.88;5007854;28;20064;-68
2021/10/27 02:55:13;;;;;;;31.00;14.60;;;;;;;11.30;57.81;101741.44;5015979;28;20026;-67
2021/10/27 02:57:38;;;;;;;26.58;14.05;;;;;;;10.57;59.44;101743.41;5014187;28;20131;-67
2021/10/27 03:00:06;;;;;;;29.63;13.68;;;;;;;11.10;58.42;101734.16;5015665;28;20068;-67
2021/10/27 03:02:32;;;;;;;28.52;12.48;;;;;;;10.76;59.27;101743.75;5011909;28;20049;-67
2021/10/27 03:04:57;;;;;;;28.70;12.82;;;;;;;11.71;56.79;101741.94;5015850;28;20069;-68
2021/10/27 03:07:23;;;;;;;21.83;13.13;;;;;;;10.76;59.48;101748.13;5004559;28;20507;-67
2021/10/27 03:09:49;;;;;;;26.38;12.70;;;;;;;11.33;57.65;101750.06;5001144;28;20107;-68
2021/10/27 03:12:15;;;;;;;27.50;12.93;;;;;;;11.55;57.28;101755.50;5016804;28;20076;-68
2021/10/27 03:14:40;;;;;;;27.23;13.18;;;;;;;11.22;58.35;101762.59;5016345;28;20029;-68
2021/10/27 03:17:06;;;;;;;26.00;13.50;;;;;;;11.21;57.74;101763.50;4999929;28;20037;-67
2021/10/27 03:19:32;;;;;;;25.25;12.38;;;;;;;11.37;57.79;101759.53;5017381;28;20538;-68
2021/10/27 03:21:57;;;;;;;29.38;13.30;;;;;;;11.48;57.54;101760.97;5015352;28;20049;-68
2021/10/27 03:24:23;;;;;;;24.52;12.38;;;;;;;11.52;57.59;101762.59;5017020;28;20041;-67
2021/10/27 03:26:49;;;;;;;25.27;12.43;;;;;;;11.68;56.68;101758.59;5012714;28;20068;-67
2021/10/27 03:29:14;;;;;;;23.70;11.05;;;;;;;11.32;57.86;101766.66;5015456;28;20034;-67
2021/10/27 03:31:40;;;;;;;23.35;11.82;;;;;;;11.24;58.33;101766.00;5026323;28;20104;-68
2021/10/27 03:34:05;;;;;;;26.58;11.52;;;;;;;11.37;57.86;101758.66;5001910;28;20329;-67
2021/10/27 03:36:31;;;;;;;23.33;10.63;;;;;;;11.65;57.00;101748.25;5012055;28;20061;-67
2021/10/27 03:38:56;;;;;;;27.05;11.65;;;;;;;11.74;56.78;101750.56;5012500;28;20695;-67
2021/10/27 03:41:22;;;;;;;22.67;10.60;;;;;;;11.44;57.18;101734.91;5011484;28;20398;-68
2021/10/27 03:43:48;;;;;;;18.90;10.27;;;;;;;11.48;57.30;101740.88;5015064;28;20134;-67
2021/10/27 03:46:13;;;;;;;24.98;11.00;;;;;;;11.53;57.15;101739.00;5017632;28;20041;-67
2021/10/27 03:48:39;;;;;;;23.70;12.00;;;;;;;11.45;57.47;101747.06;5017224;28;20041;-68
2021/10/27 03:51:07;;;;;;;25.17;11.38;;;;;;;10.82;59.58;101753.25;5012830;28;20057;-67
2021/10/27 03:53:32;;;;;;;23.42;11.55;;;;;;;11.54;57.58;101750.31;5013464;28;20130;-68
2021/10/27 03:55:58;;;;;;;27.30;12.00;;;;;;;10.75;59.97;101756.88;5023093;28;20115;-67
2021/10/27 03:58:23;;;;;;;23.13;11.27;;;;;;;10.99;59.23;101752.78;5013140;28;20052;-67
2021/10/27 04:00:49;;;;;;;28.65;12.40;;;;;;;11.37;58.31;101746.44;5022257;28;20494;-68
2021/10/27 04:03:23;;;;;;;26.02;10.93;;;;;;;11.28;58.08;101759.78;5012207;28;20045;-66
2021/10/27 04:05:49;;;;;;;18.75;10.90;;;;;;;11.63;57.10;101771.00;5000974;28;20091;-68
2021/10/27 04:08:16;;;;;;;28.98;11.27;;;;;;;11.64;56.78;101776.19;5000396;28;20052;-67
2021/10/27 04:10:42;;;;;;;23.55;12.73;;;;;;;11.93;56.23;101776.22;5016314;28;20038;-69
2021/10/27 04:13:07;;;;;;;21.20;10.77;;;;;;;11.47;57.10;101786.31;5013544;28;20045;-68
2021/10/27 04:15:33;;;;;;;20.65;11.60;;;;;;;12.00;56.01;101798.69;5013783;28;20518;-68
2021/10/27 04:17:59;;;;;;;23.58;10.43;;;;;;;11.69;57.07;101797.00;5023316;28;20130;-67
2021/10/27 04:20:25;;;;;;;19.50;10.57;;;;;;;11.80;56.69;101792.31;5017951;28;20049;-67
2021/10/27 04:22:50;;;;;;;20.25;10.52;;;;;;;12.01;56.30;101793.41;5014527;28;20197;-67
2021/10/27 04:25:16;;;;;;;20.38;10.75;;;;;;;11.51;57.72;101787.94;5017569;28;20502;-67
2021/10/27 04:27:42;;;;;;;23.27;10.23;;;;;;;11.55;57.90;101796.53;5020525;28;20054;-69
2021/10/27 04:30:08;;;;;;;21.15;10.15;;;;;;;11.66;57.48;101794.47;5019645;28;20042;-69
2021/10/27 04:32:35;;;;;;;22.13;8.93;;;;;;;11.51;57.68;101800.13;5004513;28;20403;-67
2021/10/27 04:35:00;;;;;;;17.25;9.25;;;;;;;11.80;57.07;101809.81;5007678;28;20041;-68
2021/10/27 04:37:27;;;;;;;19.05;8.93;;;;;;;11.56;58.01;101801.72;5012544;28;20066;-66
2021/10/27 04:39:53;;;;;;;21.65;7.38;;;;;;;11.49;58.05;101807.22;5013664;28;20615;-66
2021/10/27 04:42:19;;;;;;;23.27;8.95;;;;;;;11.73;57.52;101793.41;5016757;28;20034;-70
2021/10/27 04:44:44;;;;;;;18.75;8.27;;;;;;;11.94;56.96;101791.91;5013757;28;20101;-69
2021/10/27 04:47:10;;;;;;;13.57;7.47;;;;;;;11.43;58.32;101797.75;5021227;28;20084;-69
2021/10/27 04:49:35;;;;;;;15.75;8.63;;;;;;;11.39;58.56;101799.59;5018025;28;20076;-70
2021/10/27 04:52:01;;;;;;;19.38;7.57;;;;;;;12.08;56.58;101788.84;5015992;28;20545;-67
2021/10/27 04:54:27;;;;;;;17.55;7.65;;;;;;;11.83;57.38;101799.22;5002074;28;20033;-68
2021/10/27 04:56:52;;;;;;;21.08;8.05;;;;;;;11.78;57.26;101790.66;5021719;28;20110;-67
2021/10/27 04:59:18;;;;;;;14.43;7.13;;;;;;;12.42;55.45;101778.13;5016340;28;20084;-67
2021/10/27 05:01:47;;;;;;;20.33;7.15;;;;;;;11.63;57.92;101784.09;5018167;28;20140;-66
2021/10/27 05:04:13;;;;;;;13.30;6.90;;;;;;;11.99;56.75;101783.88;5017759;28;20034;-67
2021/10/27 05:06:39;;;;;;;16.17;6.32;;;;;;;11.91;56.97;101791.13;5014547;28;20127;-67
2021/10/27 05:09:04;;;;;;;15.98;6.82;;;;;;;12.01;56.71;101772.44;5025743;28;20459;-66
2021/10/27 05:11:30;;;;;;;22.42;6.68;;;;;;;12.19;55.89;101778.88;5016368;28;20083;-68
2021/10/27 05:13:55;;;;;;;15.40;6.13;;;;;;;11.94;56.98;101775.31;5017738;28;20048;-66
2021/10/27 05:16:21;;;;;;;16.38;6.60;;;;;;;12.19;56.25;101781.47;5024090;28;20037;-67
2021/10/27 05:18:47;;;;;;;19.42;6.13;;;;;;;12.46;55.42;101773.63;5016786;28;20045;-67
2021/10/27 05:21:13;;;;;;;9.65;4.65;;;;;;;11.99;56.77;101773.41;5019432;28;20029;-68
2021/10/27 05:23:38;;;;;;;9.48;4.95;;;;;;;11.73;57.29;101779.41;5029581;28;20481;-67
2021/10/27 05:26:04;;;;;;;10.35;5.43;;;;;;;11.75;57.30;101767.13;5019683;28;20052;-67
2021/10/27 05:28:30;;;;;;;12.93;4.93;;;;;;;11.93;56.71;101771.81;5013464;28;20044;-67
2021/10/27 05:30:55;;;;;;;10.70;4.50;;;;;;;12.10;56.47;101765.22;4999375;28;20037;-67
2021/10/27 05:33:21;;;;;;;16.60;4.85;;;;;;;12.08;56.25;101767.88;5017152;28;20073;-67
2021/10/27 05:35:47;;;;;;;12.48;4.60;;;;;;;12.11;55.86;101761.66;5014462;28;20026;-67
2021/10/27 05:38:12;;;;;;;11.15;3.88;;;;;;;12.18;55.67;101758.81;5031869;28;20121;-68
2021/10/27 05:40:38;;;;;;;15.52;4.43;;;;;;;11.38;58.11;101771.72;5032296;28;20498;-67
2021/10/27 05:43:11;;;;;;;10.80;4.88;;;;;;;12.07;56.22;101760.94;5016071;28;20503;-67
2021/10/27 05:45:37;;;;;;;14.68;3.63;;;;;;;12.18;55.93;101763.19;5014293;28;23293;-67
2021/10/27 05:48:04;;;;;;;14.02;3.38;;;;;;;11.92;56.25;101766.66;4993575;28;20045;-68
2021/10/27 05:55:40;;;;;;;12.48;3.63;;;;;;;12.19;55.78;101772.78;5014204;28;20029;-68
2021/10/27 05:58:08;;;;;;;10.25;4.03;;;;;;;12.21;55.75;101774.44;5009685;28;20618;-68
2021/10/27 06:00:35;;;;;;;10.68;3.72;;;;;;;12.17;55.54;101780.69;5016562;28;20060;-68
2021/10/27 06:03:01;;;;;;;20.02;3.53;;;;;;;11.95;56.37;101782.25;5016918;28;20052;-68
2021/10/27 06:05:27;;;;;;;9.32;2.83;;;;;;;12.37;55.14;101776.56;5018519;28;20040;-67
2021/10/27 06:07:53;;;;;;;12.45;2.97;;;;;;;12.39;54.93;101778.22;5014986;28;20325;-68
2021/10/27 06:10:22;;;;;;;7.00;3.53;;;;;;;11.62;57.14;101780.63;5015609;28;20033;-67
2021/10/27 06:12:57;;;;;;;9.52;3.13;;;;;;;12.02;56.33;101778.53;5014039;28;20048;-68
2021/10/27 06:15:23;;;;;;;16.65;3.08;;;;;;;11.81;56.86;101780.94;5004584;28;20038;-68
2021/10/27 06:17:49;;;;;;;17.27;3.60;;;;;;;11.61;57.48;101785.88;4998945;28;20520;-67
2021/10/27 06:20:15;;;;;;;10.45;2.65;;;;;;;12.31;55.39;101784.59;5017906;28;20501;-68
2021/10/27 06:22:43;;;;;;;9.90;2.75;;;;;;;12.26;55.53;101801.34;5014767;28;20041;-68
2021/10/27 06:25:11;;;;;;;8.65;2.67;;;;;;;12.23;55.43;101795.34;5021783;28;20077;-68
2021/10/27 06:27:38;;;;;;;9.20;3.00;;;;;;;11.84;56.76;101801.81;5015111;28;20573;-67
2021/10/27 06:30:12;;;;;;;11.23;2.75;;;;;;;11.83;56.83;101810.56;5021605;28;20786;-68
2021/10/27 06:35:20;;;;;;;7.05;2.33;;;;;;;12.31;55.76;101814.28;5014470;28;20038;-68
2021/10/27 06:46:26;;;;;;;11.23;2.10;;;;;;;12.06;56.30;101827.31;5015149;28;20056;-67
2021/10/27 06:48:51;;;;;;;11.15;2.88;;;;;;;11.80;57.52;101831.63;4999605;28;20037;-66
2021/10/27 06:51:17;;;;;;;8.30;3.05;;;;;;;12.21;56.12;101828.63;5016249;28;20555;-68
2021/10/27 06:53:43;;;;;;;11.38;3.70;;;;;;;12.28;55.74;101838.84;5016426;28;20041;-67
2021/10/27 06:56:12;;;;;;;10.25;3.17;;;;;;;12.35;55.52;101834.25;5003850;28;20045;-67
2021/10/27 07:01:25;;;;;;;;;;;;;;;11.63;57.89;101839.94;5030377;28;20040;-67
2021/10/27 07:06:41;;;;;;;9.38;3.88;;;;;;;12.12;56.60;101848.09;5013766;28;20040;-67
2021/10/27 07:17:00;;;;;;;8.50;3.25;;;;;;;12.56;55.40;101852.81;5010769;28;20042;-68
2021/10/27 07:19:25;;;;;;;7.35;3.35;;;;;;;12.23;56.48;101850.41;5015277;28;20045;-67
2021/10/27 07:21:51;;;;;;;8.80;3.15;;;;;;;12.15;56.37;101842.75;5016143;28;20042;-68
2021/10/27 07:24:17;;;;;;;15.40;3.78;;;;;;;12.07;56.32;101853.50;5002167;28;20041;-66
2021/10/27 07:26:42;;;;;;;8.68;3.35;;;;;;;12.56;55.41;101856.31;5009235;28;20044;-67
2021/10/27 07:29:08;;;;;;;8.13;3.15;;;;;;;12.64;55.27;101856.91;5011051;28;20081;-67
2021/10/27 07:31:34;;;;;;;12.95;5.28;;;;;;;12.18;56.78;101863.66;5012533;28;20940;-68
2021/10/27 07:34:07;;;;;;;13.90;4.40;;;;;;;11.77;58.19;101864.84;5011771;28;20033;-67
2021/10/27 07:41:51;;;;;;;13.30;4.00;;;;;;;11.78;58.46;101867.47;5011814;28;20063;-68
2021/10/27 07:44:18;;;;;;;11.20;3.20;;;;;;;11.79;58.44;101879.66;5020291;28;20121;-68
2021/10/27 07:46:44;;;;;;;9.52;5.05;;;;;;;11.84;58.12;101890.00;5011628;28;20033;-69
2021/10/27 07:49:11;;;;;;;9.45;3.75;;;;;;;12.33;57.02;101882.41;5011750;28;20041;-68
2021/10/27 07:51:36;;;;;;;12.80;4.00;;;;;;;12.22;57.10;101888.88;5018832;28;20040;-68
2021/10/27 07:54:04;;;;;;;11.75;4.70;;;;;;;12.67;55.68;101890.94;5024550;28;20045;-67
2021/10/27 07:56:30;;;;;;;7.97;3.90;;;;;;;12.39;56.53;101900.59;5030182;28;20537;-68
2021/10/27 07:58:55;;;;;;;13.32;3.58;;;;;;;12.32;56.51;101902.53;5006754;28;20052;-68
2021/10/27 08:01:21;;;;;;;11.35;3.28;;;;;;;12.14;56.99;101903.09;5029519;28;20298;-68
2021/10/27 08:03:46;;;;;;;14.23;4.15;;;;;;;12.14;56.87;101901.34;5023643;28;20091;-68
2021/10/27 08:06:12;;;;;;;12.32;3.78;;;;;;;12.14;56.97;101903.09;5004876;28;20514;-68
2021/10/27 08:08:38;;;;;;;12.05;3.38;;;;;;;11.75;58.27;101906.78;5018686;28;20515;-67
2021/10/27 08:11:04;;;;;;;19.45;4.15;;;;;;;11.69;58.17;101904.38;5014110;28;20044;-68
2021/10/27 08:13:29;;;;;;;12.15;4.00;;;;;;;11.42;58.67;101912.09;5021379;28;20356;-67
2021/10/27 08:15:56;;;;;;;12.25;3.63;;;;;;;12.03;57.43;101911.28;5022442;28;20033;-67
2021/10/27 08:18:22;;;;;;;10.02;3.42;;;;;;;11.97;57.23;101906.22;5015788;28;20123;-67
2021/10/27 08:20:49;;;;;;;15.98;3.90;;;;;;;11.95;57.31;101913.25;5042207;22;20823;-66
2021/10/27 08:23:18;;;;;;;12.00;3.45;;;;;;;12.74;55.35;101904.72;5085033;28;20074;-67
2021/10/27 08:25:45;;;;;;;7.68;3.03;;;;;;;12.43;55.77;101915.31;5091106;28;20361;-68
2021/10/27 08:28:15;;;;;;;16.23;4.68;;;;;;;12.26;56.67;101914.06;5093705;28;20035;-68
2021/10/27 08:31:03;;;;;;;14.88;4.60;;;;;;;12.08;56.92;101915.47;5085556;28;20439;-68
2021/10/27 08:35:57;;;;;;;8.77;4.20;;;;;;;12.69;55.58;101910.13;5061440;28;20511;-68
2021/10/27 08:38:23;;;;;;;12.20;5.30;;;;;;;11.87;57.82;101911.72;5064755;28;20043;-68
2021/10/27 08:40:49;;;;;;;7.45;4.13;;;;;;;12.14;56.93;101916.22;5061207;28;20054;-68
2021/10/27 08:43:14;;;;;;;12.85;4.55;;;;;;;12.46;55.96;101904.72;5064319;28;20161;-68
2021/10/27 08:45:42;;;;;;;7.57;4.45;;;;;;;12.98;54.75;101908.31;5074386;28;20034;-67
2021/10/27 08:48:09;;;;;;;7.78;4.28;;;;;;;13.10;54.28;101913.13;5075692;28;20052;-67
2021/10/27 08:50:36;;;;;;;14.80;5.35;;;;;;;12.12;56.94;101918.00;5060975;28;20095;-68
2021/10/27 08:53:02;;;;;;;12.95;4.95;;;;;;;12.69;55.65;101907.50;5072559;28;20105;-69
2021/10/27 08:55:29;;;;;;;11.18;5.05;;;;;;;12.85;55.04;101917.50;5062125;28;20422;-68
2021/10/27 08:57:55;;;;;;;12.82;4.82;;;;;;;12.92;55.19;101908.50;5072467;28;20845;-68
2021/10/27 09:00:46;;;;;;;11.80;4.40;;;;;;;12.92;55.21;101908.50;5059407;28;20040;-67
2021/10/27 09:03:19;;;;;;;10.77;4.68;;;;;;;11.97;57.72;101916.69;5070604;28;20043;-68
2021/10/27 09:06:00;;;;;;;9.82;4.90;;;;;;;11.96;57.76;101905.38;5069701;28;20453;-66
2021/10/27 09:34:36;;;;;;;11.60;6.13;;;;;;;12.72;56.12;101913.56;5072500;28;20039;-68
2021/10/27 10:06:47;;;;;;;10.75;7.07;;;;;;;12.63;56.44;101933.88;5070303;28;20492;-72
2021/10/27 10:09:13;;;;;;;14.02;7.15;;;;;;;12.63;56.72;101939.13;5057790;28;20024;-68
2021/10/27 10:11:40;;;;;;;17.08;7.72;;;;;;;12.13;57.91;101940.69;5069900;28;20032;-68
2021/10/27 10:14:08;;;;;;;11.77;6.35;;;;;;;11.75;58.64;101925.13;5068704;28;20031;-71
2021/10/27 10:16:42;;;;;;;15.35;7.15;;;;;;;12.34;56.91;101926.94;5068714;28;20036;-69
2021/10/27 10:19:12;;;;;;;17.23;7.22;;;;;;;12.09;57.92;101937.31;5068645;28;20106;-67
2021/10/27 10:21:41;;;;;;;13.13;7.28;;;;;;;12.69;55.94;101940.72;5050742;28;20040;-67
2021/10/27 10:24:16;;;;;;;12.77;6.88;;;;;;;12.88;55.59;101933.13;5066397;28;20145;-67
2021/10/27 10:26:43;;;;;;;14.10;7.10;;;;;;;13.32;54.16;101938.66;5049956;28;20035;-70
2021/10/27 10:29:09;;;;;;;13.57;6.47;;;;;;;13.07;54.36;101934.25;5066492;28;20036;-69
2021/10/27 10:31:39;;;;;;;13.10;6.32;;;;;;;13.28;54.16;101929.16;5069515;28;20557;-69
2021/10/27 10:34:09;;;;;;;10.07;6.28;;;;;;;13.65;52.68;101927.88;5069403;28;20648;-69
2021/10/27 10:36:42;;;;;;;9.15;5.97;;;;;;;12.97;54.49;101938.06;5066709;28;20403;-67
2021/10/27 10:43:23;;;;;;;11.90;4.57;;;;;;;13.17;53.73;101936.56;5024178;28;20086;-70
2021/10/27 11:24:48;;;;;;;13.48;6.28;;;;;;;12.53;55.37;101950.81;5064631;28;20037;-67
2021/10/27 11:38:35;;;;;;;7.13;4.95;;;;;;;12.61;55.36;101959.31;5065981;28;19927;-67
2021/10/27 11:44:12;;;;;;;8.50;6.25;;;;;;;13.30;53.31;101945.72;5065437;28;20516;-68
2021/10/27 11:46:56;;;;;;;7.75;4.53;;;;;;;13.13;53.86;101932.31;5070307;28;20056;-73
2021/10/27 11:49:28;;;;;;;10.65;5.35;;;;;;;12.95;54.41;101933.78;5053761;28;20036;-67
2021/10/27 11:51:55;;;;;;;10.63;4.78;;;;;;;13.52;52.72;101940.59;5045611;28;20067;-69
2021/10/27 11:54:25;;;;;;;10.55;4.78;;;;;;;13.43;52.94;101941.75;5071649;28;20079;-68
2021/10/27 11:56:52;;;;;;;9.85;5.53;;;;;;;13.50;52.99;101943.25;5068537;28;20235;-68
2021/10/27 11:59:17;;;;;;;13.85;6.00;;;;;;;12.20;56.25;101948.34;5054775;28;20047;-69
2021/10/27 12:01:50;;;;;;;7.60;5.38;;;;;;;13.34;53.56;101926.34;5068387;28;20497;-70
2021/10/27 12:04:17;;;;;;;10.52;4.85;;;;;;;13.18;53.80;101925.97;5071005;28;20469;-68
2021/10/27 12:07:02;;;;;;;6.75;4.00;;;;;;;13.73;52.20;101934.56;5052186;28;20127;-68
2021/10/27 12:09:49;;;;;;;7.03;4.47;;;;;;;13.81;51.91;101928.16;5070911;28;20051;-69
2021/10/27 12:17:51;;;;;;;10.93;3.28;;;;;;;12.80;53.92;101924.66;5066416;28;20060;-68
2021/10/27 12:20:29;;;;;;;9.85;3.58;;;;;;;13.63;52.15;101937.56;5065942;28;20393;-68
2021/10/27 12:22:57;;;;;;;11.68;3.92;;;;;;;13.24;53.13;101935.44;5063571;28;20062;-68
2021/10/27 12:25:23;;;;;;;5.00;2.95;;;;;;;12.85;53.83;101918.34;5064422;28;20033;-68
2021/10/27 12:27:48;;;;;;;12.07;3.45;;;;;;;13.21;52.72;101920.63;5066679;28;20048;-69
2021/10/27 12:30:17;;;;;;;9.82;2.90;;;;;;;13.13;53.08;101911.31;5056961;28;20028;-69
2021/10/27 12:32:53;;;;;;;4.97;3.13;;;;;;;13.67;51.86;101924.31;5064476;28;20036;-67
2021/10/27 12:35:19;;;;;;;12.30;5.35;;;;;;;12.98;53.33;101913.56;5069370;28;20035;-68
2021/10/27 12:37:50;;;;;;;6.72;3.53;;;;;;;12.41;55.14;101914.50;5068823;28;20513;-67
2021/10/27 12:40:30;;;;;;;8.18;3.22;;;;;;;13.13;53.44;101903.44;5044909;28;20124;-68
2021/10/27 12:43:07;;;;;;;13.13;3.97;;;;;;;13.18;53.06;101904.13;5057099;28;20127;-68
2021/10/27 12:45:35;;;;;;;6.57;2.85;;;;;;;12.85;53.90;101909.63;5072992;28;20039;-68
2021/10/27 12:48:06;;;;;;;13.15;3.47;;;;;;;12.37;54.92;101905.88;5052818;28;20097;-68
2021/10/27 12:50:33;;;;;;;8.13;3.75;;;;;;;12.73;54.32;101912.63;5068341;28;20082;-69
2021/10/27 12:53:01;;;;;;;6.75;2.90;;;;;;;12.99;53.65;101899.50;5070130;28;20154;-70
2021/10/27 12:55:33;;;;;;;8.95;2.92;;;;;;;12.99;53.77;101904.75;5055406;28;20032;-69
2021/10/27 12:58:13;;;;;;;5.85;3.55;;;;;;;12.90;53.74;101921.66;5052358;28;20394;-68
2021/10/27 13:03:22;;;;;;;9.23;2.30;;;;;;;13.13;52.94;101912.16;5048359;28;20496;-69
2021/10/27 13:06:00;;;;;;;6.47;2.42;;;;;;;13.29;52.42;101897.63;5071458;28;20108;-69
2021/10/27 13:11:31;;;;;;;6.95;2.42;;;;;;;13.59;51.70;101886.09;5069426;28;20468;-68
2021/10/27 13:19:14;;;;;;;5.32;1.85;;;;;;;13.23;51.96;101881.22;5067058;28;20531;-70
2021/10/27 13:31:57;;;;;;;7.28;2.58;;;;;;;12.84;52.90;101879.88;5071751;28;20043;-69
2021/10/27 13:34:24;;;;;;;12.60;2.78;;;;;;;13.05;52.73;101888.81;5069040;28;20066;-68
2021/10/27 13:36:50;;;;;;;13.52;2.03;;;;;;;13.28;52.18;101879.28;5068769;28;20281;-68
2021/10/27 13:39:16;;;;;;;7.40;2.05;;;;;;;13.58;51.18;101881.72;5067054;28;20034;-69
2021/10/27 13:41:44;;;;;;;7.88;2.13;;;;;;;13.43;50.94;101878.72;5067350;28;20039;-68
2021/10/27 13:44:15;;;;;;;5.22;1.50;;;;;;;13.49;51.37;101883.75;5054566;28;20580;-69
2021/10/27 13:47:02;;;;;;;4.10;1.33;;;;;;;13.18;52.50;101883.97;5050547;28;20444;-69
2021/10/27 14:08:44;;;;;;;3.08;1.75;;;;;;;13.55;50.42;101876.56;5030652;28;20060;-66
2021/10/27 14:14:34;;;;;;;5.00;1.60;;;;;;;13.20;51.16;101884.78;5030982;28;20057;-66
2021/10/27 15:21:58;;;;;;;7.97;1.38;;;;;;;12.49;52.13;101881.00;5036152;28;20094;-66
2021/10/27 15:24:41;;;;;;;4.30;1.95;;;;;;;12.50;52.22;101880.97;5032218;28;20627;-66
2021/10/27 15:32:32;;;;;;;10.98;2.17;;;;;;;12.03;52.72;101885.06;5032725;28;20044;-66
2021/10/27 15:35:05;;;;;;;8.00;1.40;;;;;;;12.22;52.70;101878.38;5033702;28;20037;-66
2021/10/27 15:51:30;;;;;;;5.68;1.83;;;;;;;12.75;50.99;101887.22;5032417;28;20377;-66
2021/10/27 15:53:56;;;;;;;11.13;2.85;;;;;;;12.65;51.24;101884.88;5031322;28;20095;-66
2021/10/27 15:56:22;;;;;;;12.25;2.25;;;;;;;13.19;49.94;101884.84;5035274;28;20036;-66
2021/10/27 15:58:49;;;;;;;5.10;3.03;;;;;;;13.02;50.27;101894.16;5033909;28;20045;-66
2021/10/27 16:01:15;;;;;;;5.43;2.40;;;;;;;12.87;50.89;101892.03;5039198;28;20040;-65
2021/10/27 16:03:41;;;;;;;5.00;1.52;;;;;;;13.20;50.14;101897.91;5030449;28;20047;-65